createdAt,value
2023-02-06T00:01:17.666Z,6.82
2023-02-06T00:03:44.841Z,7.07
2023-02-06T00:06:12.042Z,6.93
2023-02-06T00:08:39.226Z,8.02
2023-02-06T00:11:07.468Z,7.35
2023-02-06T00:13:35.470Z,6.53
2023-02-06T00:16:02.948Z,6.88
2023-02-06T00:18:30.217Z,7.38
2023-02-06T00:20:57.398Z,6.30
2023-02-06T00:23:24.598Z,6.88
2023-02-06T00:25:51.713Z,7.07
2023-02-06T00:28:18.955Z,7.00
2023-02-06T00:30:49.359Z,7.00
2023-02-06T00:33:16.587Z,7.30
2023-02-06T00:35:43.715Z,6.90
2023-02-06T00:38:11.831Z,7.80
2023-02-06T00:40:39.044Z,7.53
2023-02-06T00:43:06.713Z,6.63
2023-02-06T00:45:34.356Z,6.90
2023-02-06T00:48:01.909Z,7.22
2023-02-06T00:50:29.059Z,7.57
2023-02-06T00:52:56.206Z,7.22
2023-02-06T00:55:23.420Z,7.50
2023-02-06T00:57:50.541Z,7.20
2023-02-06T01:00:17.957Z,7.93
2023-02-06T01:02:45.262Z,7.25
2023-02-06T01:05:12.461Z,7.32
2023-02-06T01:07:40.331Z,7.28
2023-02-06T01:10:08.745Z,7.53
2023-02-06T01:12:36.275Z,7.55
2023-02-06T01:15:04.700Z,7.75
2023-02-06T01:17:32.798Z,7.53
2023-02-06T01:20:00.624Z,7.63
2023-02-06T01:22:27.847Z,8.13
2023-02-06T01:24:55.065Z,8.00
2023-02-06T01:27:22.200Z,7.30
2023-02-06T01:29:49.344Z,7.97
2023-02-06T01:32:16.485Z,7.53
2023-02-06T01:34:43.636Z,7.78
2023-02-06T01:37:10.805Z,7.25
2023-02-06T01:39:37.925Z,7.78
2023-02-06T01:42:05.249Z,7.47
2023-02-06T01:44:33.112Z,7.55
2023-02-06T01:47:00.358Z,7.05
2023-02-06T01:49:36.411Z,7.72
2023-02-06T01:52:22.100Z,8.00
2023-02-06T01:54:50.771Z,7.53
2023-02-06T01:57:18.297Z,7.30
2023-02-06T01:59:47.462Z,8.48
2023-02-06T02:02:14.946Z,8.25
2023-02-06T02:04:42.216Z,7.93
2023-02-06T02:07:21.657Z,7.95
2023-02-06T02:09:49.124Z,7.20
2023-02-06T02:12:16.276Z,7.95
2023-02-06T02:14:44.614Z,8.55
2023-02-06T02:17:11.779Z,8.30
2023-02-06T02:19:57.450Z,8.15
2023-02-06T02:22:36.896Z,7.80
2023-02-06T02:25:14.711Z,8.40
2023-02-06T02:28:11.691Z,7.70
2023-02-06T02:30:57.561Z,8.70
2023-02-06T02:33:30.638Z,8.45
2023-02-06T02:35:57.819Z,8.05
2023-02-06T02:38:29.420Z,8.63
2023-02-06T02:40:59.080Z,8.57
2023-02-06T02:43:29.262Z,8.00
2023-02-06T02:46:00.525Z,8.60
2023-02-06T02:48:30.541Z,9.02
2023-02-06T02:50:59.343Z,8.18
2023-02-06T02:53:27.230Z,8.32
2023-02-06T02:55:54.360Z,9.15
2023-02-06T02:58:24.006Z,9.02
2023-02-06T03:00:55.848Z,8.07
2023-02-06T03:03:24.322Z,9.13
2023-02-06T03:05:54.574Z,9.27
2023-02-06T03:08:39.938Z,8.98
2023-02-06T03:11:14.212Z,9.15
2023-02-06T03:14:00.397Z,7.82
2023-02-06T03:16:30.878Z,9.18
2023-02-06T03:18:58.076Z,9.32
2023-02-06T03:21:26.250Z,8.32
2023-02-06T03:23:55.248Z,8.02
2023-02-06T03:26:24.957Z,9.75
2023-02-06T03:28:57.763Z,9.23
2023-02-06T03:31:27.811Z,8.95
2023-02-06T03:34:18.021Z,8.93
2023-02-06T03:36:45.422Z,9.55
2023-02-06T03:39:12.892Z,9.35
2023-02-06T03:41:40.582Z,9.77
2023-02-06T03:44:11.484Z,9.40
2023-02-06T03:46:40.977Z,9.10
2023-02-06T03:49:09.433Z,9.05
2023-02-06T03:51:41.726Z,9.27
2023-02-06T03:54:10.071Z,10.13
2023-02-06T03:56:44.140Z,9.85
2023-02-06T03:59:11.605Z,9.90
2023-02-06T04:01:44.555Z,9.38
2023-02-06T04:04:11.847Z,9.40
2023-02-06T04:06:39.032Z,9.63
2023-02-06T04:09:06.202Z,9.20
2023-02-06T04:11:33.331Z,9.55
2023-02-06T04:14:00.460Z,9.05
2023-02-06T04:16:27.623Z,8.55
2023-02-06T04:18:54.809Z,9.25
2023-02-06T04:21:22.007Z,9.00
2023-02-06T04:23:49.181Z,8.90
2023-02-06T04:26:16.344Z,8.82
2023-02-06T04:28:43.512Z,9.23
2023-02-06T04:31:10.750Z,9.35
2023-02-06T04:33:37.927Z,9.00
2023-02-06T04:36:05.201Z,9.00
2023-02-06T04:38:32.345Z,8.65
2023-02-06T04:41:03.143Z,8.93
2023-02-06T04:43:30.311Z,9.07
2023-02-06T04:45:58.711Z,9.77
2023-02-06T04:48:26.109Z,9.02
2023-02-06T04:50:53.409Z,9.50
2023-02-06T04:53:20.634Z,8.82
2023-02-06T04:55:47.850Z,9.10
2023-02-06T04:58:15.057Z,8.82
2023-02-06T05:00:42.243Z,9.60
2023-02-06T05:03:09.411Z,9.05
2023-02-06T05:05:36.777Z,8.82
2023-02-06T05:08:04.143Z,8.88
2023-02-06T05:10:31.298Z,9.13
2023-02-06T05:12:58.531Z,9.57
2023-02-06T05:15:25.681Z,9.48
2023-02-06T05:17:52.856Z,9.32
2023-02-06T05:20:21.227Z,9.13
2023-02-06T05:22:48.378Z,9.75
2023-02-06T05:25:15.554Z,9.00
2023-02-06T05:27:42.698Z,10.07
2023-02-06T05:30:10.253Z,9.35
2023-02-06T05:32:37.556Z,9.32
2023-02-06T05:35:05.015Z,9.27
2023-02-06T05:37:32.179Z,9.43
2023-02-06T05:40:00.107Z,10.40
2023-02-06T05:42:27.396Z,9.82
2023-02-06T05:44:54.575Z,9.13
2023-02-06T05:47:21.745Z,9.10
2023-02-06T05:49:48.856Z,9.35
2023-02-06T05:52:16.586Z,10.23
2023-02-06T05:54:43.832Z,10.18
2023-02-06T05:57:11.173Z,10.05
2023-02-06T05:59:38.377Z,10.45
2023-02-06T06:02:06.570Z,9.48
2023-02-06T06:04:34.397Z,11.65
2023-02-06T06:07:01.585Z,11.88
2023-02-06T06:09:28.762Z,11.05
2023-02-06T06:11:55.878Z,10.65
2023-02-06T06:14:23.115Z,9.80
2023-02-06T06:16:50.295Z,10.05
2023-02-06T06:19:17.471Z,10.02
2023-02-06T06:21:44.596Z,11.02
2023-02-06T06:24:11.784Z,10.20
2023-02-06T06:26:39.401Z,10.43
2023-02-06T06:29:06.802Z,9.40
2023-02-06T06:31:33.978Z,11.48
2023-02-06T06:34:01.158Z,10.10
2023-02-06T06:36:28.276Z,10.48
2023-02-06T06:38:55.415Z,10.05
2023-02-06T06:41:22.595Z,10.20
2023-02-06T06:43:51.514Z,10.98
2023-02-06T06:46:19.279Z,11.32
2023-02-06T06:48:46.503Z,11.85
2023-02-06T06:51:13.618Z,9.73
2023-02-06T06:53:40.811Z,9.32
2023-02-06T06:56:08.552Z,9.55
2023-02-06T06:58:35.752Z,9.65
2023-02-06T07:01:02.967Z,10.13
2023-02-06T07:03:30.196Z,10.13
2023-02-06T07:05:57.415Z,10.35
2023-02-06T07:08:24.893Z,11.68
2023-02-06T07:10:52.082Z,10.55
2023-02-06T07:13:19.270Z,10.35
2023-02-06T07:15:46.404Z,10.45
2023-02-06T07:18:13.571Z,11.13
2023-02-06T07:20:40.730Z,10.60
2023-02-06T07:23:07.916Z,11.82
2023-02-06T07:25:35.443Z,11.02
2023-02-06T07:28:02.719Z,10.95
2023-02-06T07:30:29.950Z,11.27
2023-02-06T07:32:57.145Z,11.18
2023-02-06T07:35:24.313Z,11.10
2023-02-06T07:37:53.651Z,11.60
2023-02-06T07:40:20.919Z,11.27
2023-02-06T07:42:48.070Z,12.75
2023-02-06T07:45:15.332Z,11.45
2023-02-06T07:47:43.746Z,12.80
2023-02-06T07:50:11.472Z,12.27
2023-02-06T07:52:38.659Z,12.20
2023-02-06T07:55:05.940Z,11.10
2023-02-06T07:57:33.128Z,11.35
2023-02-06T08:00:00.299Z,10.68
2023-02-06T08:02:27.518Z,10.68
2023-02-06T08:04:54.755Z,9.70
2023-02-06T08:07:21.905Z,9.48
2023-02-06T08:09:49.101Z,8.75
2023-02-06T08:12:16.318Z,8.88
2023-02-06T08:14:45.807Z,8.38
2023-02-06T08:17:13.670Z,8.82
2023-02-06T08:19:40.940Z,8.30
2023-02-06T08:22:08.209Z,7.28
2023-02-06T08:24:35.390Z,7.97
2023-02-06T08:27:02.572Z,7.88
2023-02-06T08:29:29.798Z,7.25
2023-02-06T08:31:56.998Z,6.80
2023-02-06T08:34:24.259Z,7.07
2023-02-06T08:36:51.470Z,7.47
2023-02-06T08:39:19.264Z,8.23
2023-02-06T08:41:46.472Z,6.70
2023-02-06T08:44:16.011Z,6.38
2023-02-06T08:46:44.050Z,5.97
2023-02-06T08:49:15.920Z,5.80
2023-02-06T08:51:43.805Z,6.38
2023-02-06T08:54:15.776Z,6.72
2023-02-06T08:56:42.972Z,6.90
2023-02-06T08:59:10.958Z,6.68
2023-02-06T09:01:38.323Z,5.72
2023-02-06T09:04:06.810Z,5.15
2023-02-06T09:06:35.362Z,5.22
2023-02-06T09:09:02.967Z,4.60
2023-02-06T09:11:30.277Z,5.78
2023-02-06T09:13:58.086Z,5.68
2023-02-06T09:16:26.114Z,4.95
2023-02-06T09:18:54.247Z,5.22
2023-02-06T09:21:22.948Z,5.20
2023-02-06T09:23:51.997Z,5.22
2023-02-06T09:26:24.202Z,4.78
2023-02-06T09:28:58.471Z,4.88
2023-02-06T09:31:26.036Z,4.90
2023-02-06T09:33:53.243Z,5.35
2023-02-06T09:36:21.475Z,5.30
2023-02-06T09:38:49.889Z,5.10
2023-02-06T09:41:28.274Z,4.55
2023-02-06T09:43:58.755Z,4.53
2023-02-06T09:46:28.285Z,4.80
2023-02-06T09:48:57.257Z,4.18
2023-02-06T09:51:33.656Z,4.38
2023-02-06T09:54:19.334Z,4.68
2023-02-06T09:56:49.616Z,4.57
2023-02-06T09:59:29.087Z,4.75
2023-02-06T10:02:15.177Z,4.47
2023-02-06T10:04:50.961Z,4.38
2023-02-06T10:07:30.056Z,4.18
2023-02-06T10:10:01.309Z,4.63
2023-02-06T10:12:39.760Z,4.70
2023-02-06T10:15:18.215Z,4.70
2023-02-06T10:17:59.268Z,4.47
2023-02-06T10:20:34.469Z,4.60
2023-02-06T10:23:04.699Z,4.82
2023-02-06T10:25:33.898Z,4.03
2023-02-06T10:28:15.970Z,4.70
2023-02-06T10:30:58.559Z,4.60
2023-02-06T10:33:33.694Z,4.47
2023-02-06T10:36:00.834Z,5.03
2023-02-06T10:39:00.740Z,5.10
2023-02-06T10:41:40.312Z,4.72
2023-02-06T10:44:25.942Z,5.50
2023-02-06T10:46:54.866Z,4.90
2023-02-06T10:49:41.107Z,4.47
2023-02-06T10:52:26.654Z,5.05
2023-02-06T10:54:58.633Z,4.40
2023-02-06T10:57:28.595Z,4.65
2023-02-06T10:59:58.165Z,4.43
2023-02-06T11:02:28.043Z,4.35
2023-02-06T11:05:18.221Z,3.88
2023-02-06T11:07:51.864Z,4.18
2023-02-06T11:10:20.972Z,4.30
2023-02-06T11:12:51.320Z,4.38
2023-02-06T11:15:32.535Z,4.05
2023-02-06T11:18:00.370Z,4.22
2023-02-06T11:20:30.512Z,4.40
2023-02-06T11:22:57.732Z,4.68
2023-02-06T11:25:29.650Z,4.13
2023-02-06T11:27:57.725Z,4.32
2023-02-06T11:30:45.170Z,4.63
2023-02-06T11:33:28.123Z,4.50
2023-02-06T11:35:56.355Z,4.00
2023-02-06T11:38:24.870Z,4.20
2023-02-06T11:41:02.064Z,4.05
2023-02-06T11:43:49.417Z,4.32
2023-02-06T11:46:21.064Z,4.90
2023-02-06T11:48:58.632Z,5.20
2023-02-06T11:51:26.152Z,4.63
2023-02-06T11:53:58.055Z,4.97
2023-02-06T11:56:25.374Z,4.88
2023-02-06T11:59:16.325Z,4.70
2023-02-06T12:01:45.290Z,4.25
2023-02-06T12:04:23.594Z,4.80
2023-02-06T12:06:55.498Z,5.45
2023-02-06T12:09:22.712Z,4.97
2023-02-06T12:11:56.875Z,4.95
2023-02-06T12:14:24.088Z,5.18
2023-02-06T12:16:51.920Z,5.18
2023-02-06T12:19:24.712Z,4.97
2023-02-06T12:21:54.083Z,5.20
2023-02-06T12:24:42.379Z,5.03
2023-02-06T12:27:16.040Z,5.20
2023-02-06T12:29:57.886Z,4.80
2023-02-06T12:32:29.255Z,4.75
2023-02-06T12:35:02.519Z,5.00
2023-02-06T12:37:46.758Z,5.10
2023-02-06T12:40:21.872Z,4.82
2023-02-06T12:42:54.604Z,4.85
2023-02-06T12:45:31.659Z,4.32
2023-02-06T12:48:08.906Z,5.35
2023-02-06T12:50:57.642Z,4.55
2023-02-06T12:53:40.167Z,5.20
2023-02-06T12:56:25.959Z,5.05
2023-02-06T12:59:17.273Z,5.07
2023-02-06T13:01:44.795Z,5.22
2023-02-06T13:04:23.879Z,5.72
2023-02-06T13:06:59.204Z,5.38
2023-02-06T13:09:32.357Z,5.65
2023-02-06T13:12:08.251Z,5.55
2023-02-06T13:14:38.248Z,4.97
2023-02-06T13:17:10.142Z,5.70
2023-02-06T13:19:37.352Z,6.07
2023-02-06T13:22:13.172Z,6.15
2023-02-06T13:24:41.649Z,5.93
2023-02-06T13:27:08.786Z,5.90
2023-02-06T13:29:43.361Z,5.63
2023-02-06T13:32:16.496Z,5.63
2023-02-06T13:34:44.872Z,5.93
2023-02-06T13:37:30.420Z,6.35
2023-02-06T13:40:16.544Z,6.28
2023-02-06T13:43:02.636Z,6.70
2023-02-06T13:45:41.985Z,6.20
2023-02-06T13:48:27.322Z,5.82
2023-02-06T13:51:12.570Z,5.45
2023-02-06T13:56:25.756Z,5.80
2023-02-06T13:58:57.430Z,5.60
2023-02-06T14:01:31.520Z,5.93
2023-02-06T14:03:58.983Z,5.68
2023-02-06T14:06:26.103Z,5.65
2023-02-06T14:09:01.921Z,6.65
2023-02-06T14:11:59.906Z,6.20
2023-02-06T14:14:30.243Z,5.93
2023-02-06T14:17:16.296Z,5.80
2023-02-06T14:19:43.417Z,6.32
2023-02-06T14:22:43.984Z,6.15
2023-02-06T14:25:11.326Z,6.63
2023-02-06T14:27:41.639Z,5.53
2023-02-06T14:30:31.838Z,6.82
2023-02-06T14:33:07.523Z,6.38
2023-02-06T14:35:40.697Z,5.90
2023-02-06T14:38:26.514Z,5.65
2023-02-06T14:40:55.967Z,6.88
2023-02-06T14:43:25.550Z,6.30
2023-02-06T14:46:06.038Z,5.88
2023-02-06T14:48:37.355Z,6.28
2023-02-06T14:51:05.477Z,5.35
2023-02-06T14:53:40.620Z,5.45
2023-02-06T14:56:18.640Z,6.03
2023-02-06T14:58:46.567Z,4.85
2023-02-06T15:01:20.445Z,5.00
2023-02-06T15:03:48.637Z,5.35
2023-02-06T15:06:26.345Z,5.80
2023-02-06T15:08:53.478Z,5.03
2023-02-06T15:11:23.040Z,4.97
2023-02-06T15:13:51.616Z,4.93
2023-02-06T15:16:19.159Z,5.00
2023-02-06T15:18:46.341Z,4.47
2023-02-06T15:21:15.700Z,5.60
2023-02-06T15:23:46.279Z,4.75
2023-02-06T15:26:27.000Z,4.50
2023-02-06T15:29:01.406Z,4.28
2023-02-06T15:31:29.216Z,4.65
2023-02-06T15:33:58.569Z,5.88
2023-02-06T15:36:37.549Z,5.90
2023-02-06T15:39:06.387Z,4.78
2023-02-06T15:41:34.364Z,4.75
2023-02-06T15:44:03.198Z,4.60
2023-02-06T15:46:31.290Z,4.75
2023-02-06T15:48:58.874Z,4.63
2023-02-06T15:51:40.738Z,4.55
2023-02-06T15:54:19.669Z,4.90
2023-02-06T15:57:03.895Z,4.30
2023-02-06T15:59:33.075Z,4.93
2023-02-06T16:02:01.884Z,4.47
2023-02-06T16:04:31.783Z,6.15
2023-02-06T16:07:19.566Z,4.95
2023-02-06T16:09:55.931Z,4.75
2023-02-06T16:12:23.446Z,5.10
2023-02-06T16:15:00.566Z,5.50
2023-02-06T16:17:41.241Z,4.82
2023-02-06T16:20:26.985Z,5.38
2023-02-06T16:22:57.755Z,5.05
2023-02-06T16:25:34.022Z,5.68
2023-02-06T16:28:01.246Z,5.75
2023-02-06T16:30:28.612Z,5.75
2023-02-06T16:32:56.992Z,5.10
2023-02-06T16:35:24.873Z,5.07
2023-02-06T16:37:53.057Z,5.32
2023-02-06T16:40:20.666Z,6.03
2023-02-06T16:42:48.179Z,5.18
2023-02-06T16:45:20.917Z,6.05
2023-02-06T16:47:48.148Z,6.00
2023-02-06T16:50:16.384Z,5.57
2023-02-06T16:52:54.397Z,5.95
2023-02-06T16:55:23.461Z,6.25
2023-02-06T16:57:52.996Z,5.35
2023-02-06T17:00:25.542Z,5.63
2023-02-06T17:02:53.680Z,5.97
2023-02-06T17:05:22.053Z,5.43
2023-02-06T17:07:50.686Z,5.68
2023-02-06T17:10:22.678Z,5.55
2023-02-06T17:12:50.186Z,5.63
2023-02-06T17:15:18.385Z,5.32
2023-02-06T17:17:46.067Z,5.28
2023-02-06T17:20:30.516Z,5.70
2023-02-06T17:22:57.727Z,5.70
2023-02-06T17:25:24.886Z,5.32
2023-02-06T17:27:52.149Z,4.88
2023-02-06T17:30:21.429Z,6.25
2023-02-06T17:32:49.130Z,5.30
2023-02-06T17:35:16.952Z,5.15
2023-02-06T17:37:44.290Z,5.40
2023-02-06T17:40:18.819Z,4.95
2023-02-06T17:42:46.075Z,6.72
2023-02-06T17:45:13.256Z,5.60
2023-02-06T17:47:40.453Z,5.45
2023-02-06T17:50:07.897Z,5.75
2023-02-06T17:52:35.076Z,6.05
2023-02-06T17:55:02.518Z,5.70
2023-02-06T17:57:30.777Z,6.30
2023-02-06T17:59:58.069Z,6.25
2023-02-06T18:02:25.316Z,6.20
2023-02-06T18:04:54.188Z,6.53
2023-02-06T18:07:21.817Z,5.93
2023-02-06T18:09:48.952Z,5.90
2023-02-06T18:12:16.624Z,6.03
2023-02-06T18:14:44.134Z,6.63
2023-02-06T18:17:11.494Z,6.45
2023-02-06T18:19:42.552Z,6.82
2023-02-06T18:22:10.676Z,6.88
2023-02-06T18:24:37.826Z,8.32
2023-02-06T18:27:05.848Z,6.50
2023-02-06T18:29:48.455Z,6.55
2023-02-06T18:32:16.424Z,6.35
2023-02-06T18:34:43.791Z,6.88
2023-02-06T18:37:10.986Z,6.97
2023-02-06T18:39:39.246Z,6.65
2023-02-06T18:42:25.039Z,6.95
2023-02-06T18:44:52.182Z,6.72
2023-02-06T18:47:19.752Z,7.20
2023-02-06T18:49:47.192Z,6.55
2023-02-06T18:52:14.781Z,6.97
2023-02-06T18:54:42.451Z,6.35
2023-02-06T18:57:09.657Z,6.75
2023-02-06T18:59:37.159Z,6.38
2023-02-06T19:02:04.433Z,6.80
2023-02-06T19:04:31.662Z,6.35
2023-02-06T19:06:58.821Z,6.72
2023-02-06T19:09:26.067Z,6.80
2023-02-06T19:11:53.293Z,7.47
2023-02-06T19:14:22.591Z,7.53
2023-02-06T19:16:50.954Z,6.95
2023-02-06T19:19:18.508Z,7.30
2023-02-06T19:21:45.785Z,7.28
2023-02-06T19:24:13.993Z,6.78
2023-02-06T19:26:41.521Z,7.55
2023-02-06T19:29:09.137Z,7.63
2023-02-06T19:31:39.196Z,7.47
2023-02-06T19:34:07.256Z,7.70
2023-02-06T19:36:34.682Z,7.90
2023-02-06T19:39:03.823Z,7.22
2023-02-06T19:41:32.077Z,7.70
2023-02-06T19:44:01.584Z,7.22
2023-02-06T19:46:28.960Z,7.45
2023-02-06T19:48:56.556Z,7.45
2023-02-06T19:51:33.704Z,8.05
2023-02-06T19:54:01.315Z,8.32
2023-02-06T19:56:31.670Z,8.00
2023-02-06T19:58:59.698Z,7.57
2023-02-06T20:01:29.588Z,8.27
2023-02-06T20:04:00.666Z,8.93
2023-02-06T20:06:29.459Z,8.18
2023-02-06T20:08:57.109Z,8.48
2023-02-06T20:11:24.556Z,8.10
2023-02-06T20:13:55.599Z,8.75
2023-02-06T20:16:24.620Z,8.15
2023-02-06T20:18:52.343Z,8.32
2023-02-06T20:21:20.946Z,8.57
2023-02-06T20:23:49.901Z,9.40
2023-02-06T20:26:18.176Z,9.45
2023-02-06T20:28:45.484Z,8.75
2023-02-06T20:31:13.613Z,8.93
2023-02-06T20:33:41.209Z,8.70
2023-02-06T20:36:09.421Z,8.07
2023-02-06T20:38:36.719Z,9.55
2023-02-06T20:41:05.058Z,8.98
2023-02-06T20:43:32.508Z,9.63
2023-02-06T20:45:59.735Z,8.63
2023-02-06T20:48:27.309Z,10.07
2023-02-06T20:50:58.638Z,9.75
2023-02-06T20:53:25.943Z,8.90
2023-02-06T20:55:53.395Z,9.65
2023-02-06T20:58:20.817Z,9.10
2023-02-06T21:00:50.013Z,9.55
2023-02-06T21:03:17.372Z,9.82
2023-02-06T21:05:44.578Z,9.65
2023-02-06T21:08:11.837Z,9.07
2023-02-06T21:10:39.297Z,9.43
2023-02-06T21:13:06.614Z,9.50
2023-02-06T21:15:33.837Z,9.80
2023-02-06T21:18:01.053Z,9.80
2023-02-06T21:20:28.230Z,9.15
2023-02-06T21:22:56.051Z,10.02
2023-02-06T21:25:23.227Z,9.35
2023-02-06T21:27:50.483Z,9.95
2023-02-06T21:30:17.882Z,10.00
2023-02-06T21:32:45.017Z,10.35
2023-02-06T21:35:12.141Z,10.52
2023-02-06T21:37:39.409Z,10.07
2023-02-06T21:40:06.870Z,9.95
2023-02-06T21:42:34.130Z,9.52
2023-02-06T21:45:01.324Z,10.45
2023-02-06T21:47:28.531Z,10.32
2023-02-06T21:49:55.706Z,10.38
2023-02-06T21:52:22.843Z,11.20
2023-02-06T21:54:49.985Z,10.70
2023-02-06T21:57:17.354Z,11.18
2023-02-06T21:59:44.558Z,9.63
2023-02-06T22:02:12.321Z,9.68
2023-02-06T22:04:39.644Z,10.32
2023-02-06T22:07:09.216Z,10.52
2023-02-06T22:09:36.414Z,10.10
2023-02-06T22:12:05.394Z,9.85
2023-02-06T22:14:32.730Z,9.50
2023-02-06T22:16:59.915Z,11.25
2023-02-06T22:19:27.131Z,9.85
2023-02-06T22:21:54.263Z,10.13
2023-02-06T22:24:21.745Z,10.27
2023-02-06T22:26:48.926Z,10.50
2023-02-06T22:29:16.840Z,9.68
2023-02-06T22:31:44.812Z,11.35
2023-02-06T22:34:15.787Z,9.27
2023-02-06T22:36:44.676Z,10.40
2023-02-06T22:39:12.778Z,9.52
2023-02-06T22:41:41.604Z,10.07
2023-02-06T22:44:09.422Z,10.63
2023-02-06T22:46:38.599Z,10.57
2023-02-06T22:49:06.904Z,10.80
2023-02-06T22:51:34.283Z,9.73
2023-02-06T22:54:01.781Z,10.40
2023-02-06T22:56:37.074Z,10.98
2023-02-06T22:59:10.467Z,11.65
2023-02-06T23:01:42.021Z,10.07
2023-02-06T23:04:12.265Z,10.65
2023-02-06T23:06:39.422Z,10.93
2023-02-06T23:09:08.403Z,11.10
2023-02-06T23:11:35.951Z,10.82
2023-02-06T23:14:04.396Z,10.45
2023-02-06T23:16:32.595Z,11.38
2023-02-06T23:19:01.910Z,11.55
2023-02-06T23:21:29.079Z,11.30
2023-02-06T23:23:56.930Z,10.55
2023-02-06T23:26:24.276Z,11.10
2023-02-06T23:28:51.466Z,10.70
2023-02-06T23:31:18.771Z,11.52
2023-02-06T23:33:46.024Z,11.23
2023-02-06T23:36:17.154Z,12.80
2023-02-06T23:38:44.953Z,10.98
2023-02-06T23:41:14.894Z,11.38
2023-02-06T23:43:42.495Z,10.88
2023-02-06T23:46:12.205Z,11.82
2023-02-06T23:48:40.067Z,11.07
2023-02-06T23:51:07.366Z,11.48
2023-02-06T23:53:34.971Z,11.73
2023-02-06T23:56:02.433Z,11.95
2023-02-06T23:58:29.612Z,11.85
